Asbury, Illinois
Current Conditions -  °F | °C
As of 2:15 AM on Saturday 25 Oct 2014 (Local Time) from KCUL Reporting Station
Broken Clouds Broken Clouds  
Wind Chill: 55°   Ceiling: 4600
Heat Index: 55°   Visibility: 7mi
Dew Point: 55°   Wind: 5mph
Humidity: 97%   Direction: 160°SSE
Pressure: 30.02"   Gusts: NA
Location:  37.8866°N, 88.266°W
Report Text: KCUL 250715Z AUTO 16004KT 7SM BKN046 BKN060 13/13 A3002 RMK AO2 T01290125
Loading
Personal Weather Stations






























Interactive Weather Map New forecast layout! Learn more

10-Day Weather Forecast

Advertisements
Track Severe Weather on mobile